sensor_id;sensor_type;location;lat;lon;timestamp;P1;durP1;ratioP1;P2;durP2;ratioP2
54428;SDS011;40337;52.978;6.310;2023-05-19T00:01:58;8.32;;;3.50;;
54428;SDS011;40337;52.978;6.310;2023-05-19T00:04:24;8.32;;;4.10;;
54428;SDS011;40337;52.978;6.310;2023-05-19T00:06:50;7.30;;;3.58;;
54428;SDS011;40337;52.978;6.310;2023-05-19T00:09:18;10.07;;;4.55;;
54428;SDS011;40337;52.978;6.310;2023-05-19T00:11:44;10.25;;;4.00;;
54428;SDS011;40337;52.978;6.310;2023-05-19T00:14:10;10.73;;;4.38;;
54428;SDS011;40337;52.978;6.310;2023-05-19T00:16:36;10.18;;;4.20;;
54428;SDS011;40337;52.978;6.310;2023-05-19T00:19:06;12.13;;;4.60;;
54428;SDS011;40337;52.978;6.310;2023-05-19T00:21:35;9.85;;;4.30;;
54428;SDS011;40337;52.978;6.310;2023-05-19T00:24:02;9.82;;;4.30;;
54428;SDS011;40337;52.978;6.310;2023-05-19T00:26:27;7.45;;;4.43;;
54428;SDS011;40337;52.978;6.310;2023-05-19T00:28:53;7.82;;;4.28;;
54428;SDS011;40337;52.978;6.310;2023-05-19T00:31:19;8.18;;;3.90;;
54428;SDS011;40337;52.978;6.310;2023-05-19T00:33:44;8.65;;;4.15;;
54428;SDS011;40337;52.978;6.310;2023-05-19T00:36:10;11.55;;;4.90;;
54428;SDS011;40337;52.978;6.310;2023-05-19T00:38:36;10.65;;;4.68;;
54428;SDS011;40337;52.978;6.310;2023-05-19T00:41:02;8.50;;;4.80;;
54428;SDS011;40337;52.978;6.310;2023-05-19T00:43:29;8.50;;;4.88;;
54428;SDS011;40337;52.978;6.310;2023-05-19T00:45:55;10.63;;;5.07;;
54428;SDS011;40337;52.978;6.310;2023-05-19T00:48:21;8.85;;;5.00;;
54428;SDS011;40337;52.978;6.310;2023-05-19T00:50:49;7.35;;;4.50;;
54428;SDS011;40337;52.978;6.310;2023-05-19T00:53:17;8.38;;;4.55;;
54428;SDS011;40337;52.978;6.310;2023-05-19T00:55:43;8.13;;;4.93;;
54428;SDS011;40337;52.978;6.310;2023-05-19T00:58:11;9.02;;;4.82;;
54428;SDS011;40337;52.978;6.310;2023-05-19T01:00:37;8.50;;;4.70;;
54428;SDS011;40337;52.978;6.310;2023-05-19T01:03:03;10.40;;;4.95;;
54428;SDS011;40337;52.978;6.310;2023-05-19T01:05:35;8.13;;;4.85;;
54428;SDS011;40337;52.978;6.310;2023-05-19T01:08:03;8.80;;;4.95;;
54428;SDS011;40337;52.978;6.310;2023-05-19T01:10:29;8.75;;;4.22;;
54428;SDS011;40337;52.978;6.310;2023-05-19T01:12:55;7.53;;;4.78;;
54428;SDS011;40337;52.978;6.310;2023-05-19T01:15:21;11.48;;;5.18;;
54428;SDS011;40337;52.978;6.310;2023-05-19T01:17:50;9.80;;;5.20;;
54428;SDS011;40337;52.978;6.310;2023-05-19T01:20:40;10.35;;;5.03;;
54428;SDS011;40337;52.978;6.310;2023-05-19T01:31:50;8.95;;;5.25;;
54428;SDS011;40337;52.978;6.310;2023-05-19T01:34:17;9.90;;;5.18;;
54428;SDS011;40337;52.978;6.310;2023-05-19T01:36:45;10.27;;;5.82;;
54428;SDS011;40337;52.978;6.310;2023-05-19T01:39:13;11.27;;;5.32;;
54428;SDS011;40337;52.978;6.310;2023-05-19T01:41:40;8.90;;;5.18;;
54428;SDS011;40337;52.978;6.310;2023-05-19T01:44:07;9.77;;;5.70;;
54428;SDS011;40337;52.978;6.310;2023-05-19T01:46:34;10.10;;;5.47;;
54428;SDS011;40337;52.978;6.310;2023-05-19T01:49:01;10.05;;;5.38;;
54428;SDS011;40337;52.978;6.310;2023-05-19T01:51:27;9.32;;;5.47;;
54428;SDS011;40337;52.978;6.310;2023-05-19T01:53:52;8.05;;;4.90;;
54428;SDS011;40337;52.978;6.310;2023-05-19T01:56:19;7.15;;;4.78;;
54428;SDS011;40337;52.978;6.310;2023-05-19T01:58:58;8.35;;;5.30;;
54428;SDS011;40337;52.978;6.310;2023-05-19T02:01:43;8.75;;;5.05;;
54428;SDS011;40337;52.978;6.310;2023-05-19T02:07:40;9.90;;;5.55;;
54428;SDS011;40337;52.978;6.310;2023-05-19T02:12:36;9.40;;;5.15;;
54428;SDS011;40337;52.978;6.310;2023-05-19T02:15:11;9.65;;;5.20;;
54428;SDS011;40337;52.978;6.310;2023-05-19T02:17:41;8.52;;;5.22;;
54428;SDS011;40337;52.978;6.310;2023-05-19T02:20:16;9.00;;;5.43;;
54428;SDS011;40337;52.978;6.310;2023-05-19T02:22:42;9.68;;;5.55;;
54428;SDS011;40337;52.978;6.310;2023-05-19T02:25:08;10.25;;;5.57;;
54428;SDS011;40337;52.978;6.310;2023-05-19T02:27:35;9.52;;;5.18;;
54428;SDS011;40337;52.978;6.310;2023-05-19T02:30:02;9.00;;;4.95;;
54428;SDS011;40337;52.978;6.310;2023-05-19T02:32:28;10.00;;;5.90;;
54428;SDS011;40337;52.978;6.310;2023-05-19T02:34:54;12.13;;;6.03;;
54428;SDS011;40337;52.978;6.310;2023-05-19T02:37:20;11.18;;;5.70;;
54428;SDS011;40337;52.978;6.310;2023-05-19T02:39:48;9.70;;;5.45;;
54428;SDS011;40337;52.978;6.310;2023-05-19T02:42:13;11.27;;;6.00;;
54428;SDS011;40337;52.978;6.310;2023-05-19T02:44:41;9.38;;;5.35;;
54428;SDS011;40337;52.978;6.310;2023-05-19T02:47:07;9.20;;;5.28;;
54428;SDS011;40337;52.978;6.310;2023-05-19T02:49:32;8.18;;;5.13;;
54428;SDS011;40337;52.978;6.310;2023-05-19T02:52:01;7.93;;;5.03;;
54428;SDS011;40337;52.978;6.310;2023-05-19T02:54:30;9.77;;;5.10;;
54428;SDS011;40337;52.978;6.310;2023-05-19T02:56:56;8.45;;;5.28;;
54428;SDS011;40337;52.978;6.310;2023-05-19T02:59:22;9.90;;;4.85;;
54428;SDS011;40337;52.978;6.310;2023-05-19T03:01:48;8.93;;;5.22;;
54428;SDS011;40337;52.978;6.310;2023-05-19T03:04:14;8.25;;;5.28;;
54428;SDS011;40337;52.978;6.310;2023-05-19T03:06:40;11.20;;;5.35;;
54428;SDS011;40337;52.978;6.310;2023-05-19T03:09:06;9.60;;;5.90;;
54428;SDS011;40337;52.978;6.310;2023-05-19T03:11:32;10.65;;;5.68;;
54428;SDS011;40337;52.978;6.310;2023-05-19T03:13:57;8.60;;;5.18;;
54428;SDS011;40337;52.978;6.310;2023-05-19T03:16:23;9.75;;;5.43;;
54428;SDS011;40337;52.978;6.310;2023-05-19T03:18:49;7.88;;;4.70;;
54428;SDS011;40337;52.978;6.310;2023-05-19T03:21:15;11.10;;;5.50;;
54428;SDS011;40337;52.978;6.310;2023-05-19T03:23:40;11.02;;;5.38;;
54428;SDS011;40337;52.978;6.310;2023-05-19T03:26:06;11.27;;;5.82;;
54428;SDS011;40337;52.978;6.310;2023-05-19T03:28:31;9.52;;;5.50;;
54428;SDS011;40337;52.978;6.310;2023-05-19T03:30:57;9.18;;;5.22;;
54428;SDS011;40337;52.978;6.310;2023-05-19T03:33:22;11.15;;;5.47;;
54428;SDS011;40337;52.978;6.310;2023-05-19T03:35:48;11.18;;;5.72;;
54428;SDS011;40337;52.978;6.310;2023-05-19T03:38:14;11.13;;;5.65;;
54428;SDS011;40337;52.978;6.310;2023-05-19T03:40:40;11.60;;;5.43;;
54428;SDS011;40337;52.978;6.310;2023-05-19T03:43:05;10.43;;;5.40;;
54428;SDS011;40337;52.978;6.310;2023-05-19T03:45:31;8.70;;;5.20;;
54428;SDS011;40337;52.978;6.310;2023-05-19T03:47:57;9.52;;;5.55;;
54428;SDS011;40337;52.978;6.310;2023-05-19T03:50:23;10.30;;;5.80;;
54428;SDS011;40337;52.978;6.310;2023-05-19T03:52:48;8.82;;;4.90;;
54428;SDS011;40337;52.978;6.310;2023-05-19T03:55:14;11.18;;;5.53;;
54428;SDS011;40337;52.978;6.310;2023-05-19T03:57:40;10.07;;;5.85;;
54428;SDS011;40337;52.978;6.310;2023-05-19T04:00:07;11.75;;;5.93;;
54428;SDS011;40337;52.978;6.310;2023-05-19T04:02:35;8.73;;;5.28;;
54428;SDS011;40337;52.978;6.310;2023-05-19T04:05:00;8.50;;;5.38;;
54428;SDS011;40337;52.978;6.310;2023-05-19T04:07:28;10.60;;;5.53;;
54428;SDS011;40337;52.978;6.310;2023-05-19T04:09:55;12.82;;;6.20;;
54428;SDS011;40337;52.978;6.310;2023-05-19T04:12:21;9.18;;;5.85;;
54428;SDS011;40337;52.978;6.310;2023-05-19T04:14:46;9.38;;;5.38;;
54428;SDS011;40337;52.978;6.310;2023-05-19T04:17:12;9.77;;;5.28;;
54428;SDS011;40337;52.978;6.310;2023-05-19T04:19:37;11.38;;;5.70;;
54428;SDS011;40337;52.978;6.310;2023-05-19T04:22:04;9.90;;;5.75;;
54428;SDS011;40337;52.978;6.310;2023-05-19T04:24:30;8.73;;;5.60;;
54428;SDS011;40337;52.978;6.310;2023-05-19T04:26:55;8.13;;;5.38;;
54428;SDS011;40337;52.978;6.310;2023-05-19T04:29:26;8.88;;;5.43;;
54428;SDS011;40337;52.978;6.310;2023-05-19T04:31:53;11.73;;;5.90;;
54428;SDS011;40337;52.978;6.310;2023-05-19T04:34:19;10.55;;;5.88;;
54428;SDS011;40337;52.978;6.310;2023-05-19T04:36:44;10.85;;;5.68;;
54428;SDS011;40337;52.978;6.310;2023-05-19T04:39:10;11.18;;;6.20;;
54428;SDS011;40337;52.978;6.310;2023-05-19T04:41:36;13.57;;;6.25;;
54428;SDS011;40337;52.978;6.310;2023-05-19T04:44:04;10.07;;;5.82;;
54428;SDS011;40337;52.978;6.310;2023-05-19T04:46:33;9.45;;;6.15;;
54428;SDS011;40337;52.978;6.310;2023-05-19T04:48:59;11.43;;;6.28;;
54428;SDS011;40337;52.978;6.310;2023-05-19T04:51:25;10.85;;;6.03;;
54428;SDS011;40337;52.978;6.310;2023-05-19T04:53:53;9.55;;;5.90;;
54428;SDS011;40337;52.978;6.310;2023-05-19T04:56:19;10.57;;;5.90;;
54428;SDS011;40337;52.978;6.310;2023-05-19T04:58:44;10.88;;;6.78;;
54428;SDS011;40337;52.978;6.310;2023-05-19T05:01:10;12.27;;;6.57;;
54428;SDS011;40337;52.978;6.310;2023-05-19T05:03:37;12.57;;;6.70;;
54428;SDS011;40337;52.978;6.310;2023-05-19T05:06:03;11.23;;;6.50;;
54428;SDS011;40337;52.978;6.310;2023-05-19T05:08:30;12.93;;;7.18;;
54428;SDS011;40337;52.978;6.310;2023-05-19T05:10:56;11.15;;;6.90;;
54428;SDS011;40337;52.978;6.310;2023-05-19T05:13:22;19.15;;;7.90;;
54428;SDS011;40337;52.978;6.310;2023-05-19T05:15:48;13.02;;;7.50;;
54428;SDS011;40337;52.978;6.310;2023-05-19T05:18:16;12.88;;;7.43;;
54428;SDS011;40337;52.978;6.310;2023-05-19T05:20:42;13.93;;;7.38;;
54428;SDS011;40337;52.978;6.310;2023-05-19T05:23:08;15.48;;;7.32;;
54428;SDS011;40337;52.978;6.310;2023-05-19T05:25:38;10.68;;;6.78;;
54428;SDS011;40337;52.978;6.310;2023-05-19T05:28:04;16.88;;;8.07;;
54428;SDS011;40337;52.978;6.310;2023-05-19T05:30:30;14.77;;;7.78;;
54428;SDS011;40337;52.978;6.310;2023-05-19T05:32:57;13.43;;;7.20;;
54428;SDS011;40337;52.978;6.310;2023-05-19T05:35:23;14.60;;;8.00;;
54428;SDS011;40337;52.978;6.310;2023-05-19T05:37:48;15.60;;;8.02;;
54428;SDS011;40337;52.978;6.310;2023-05-19T05:40:14;13.55;;;7.70;;
54428;SDS011;40337;52.978;6.310;2023-05-19T05:42:40;12.18;;;7.88;;
54428;SDS011;40337;52.978;6.310;2023-05-19T05:45:06;12.48;;;8.02;;
54428;SDS011;40337;52.978;6.310;2023-05-19T05:47:32;14.70;;;8.00;;
54428;SDS011;40337;52.978;6.310;2023-05-19T05:49:58;15.40;;;7.85;;
54428;SDS011;40337;52.978;6.310;2023-05-19T05:52:25;14.43;;;8.05;;
54428;SDS011;40337;52.978;6.310;2023-05-19T05:54:54;12.90;;;7.82;;
54428;SDS011;40337;52.978;6.310;2023-05-19T05:57:20;14.90;;;7.28;;
54428;SDS011;40337;52.978;6.310;2023-05-19T05:59:46;16.02;;;8.77;;
54428;SDS011;40337;52.978;6.310;2023-05-19T06:02:12;14.73;;;8.25;;
54428;SDS011;40337;52.978;6.310;2023-05-19T06:04:38;12.02;;;7.05;;
54428;SDS011;40337;52.978;6.310;2023-05-19T06:07:04;11.30;;;6.75;;
54428;SDS011;40337;52.978;6.310;2023-05-19T06:09:30;18.70;;;7.40;;
54428;SDS011;40337;52.978;6.310;2023-05-19T06:11:56;13.23;;;7.43;;
54428;SDS011;40337;52.978;6.310;2023-05-19T06:14:23;13.40;;;6.82;;
54428;SDS011;40337;52.978;6.310;2023-05-19T06:16:49;10.63;;;6.45;;
54428;SDS011;40337;52.978;6.310;2023-05-19T06:19:15;13.80;;;6.50;;
54428;SDS011;40337;52.978;6.310;2023-05-19T06:21:40;11.60;;;5.45;;
54428;SDS011;40337;52.978;6.310;2023-05-19T06:24:07;10.70;;;5.47;;
54428;SDS011;40337;52.978;6.310;2023-05-19T06:26:32;11.27;;;5.45;;
54428;SDS011;40337;52.978;6.310;2023-05-19T06:28:58;9.75;;;4.95;;
54428;SDS011;40337;52.978;6.310;2023-05-19T06:31:24;10.20;;;5.25;;
54428;SDS011;40337;52.978;6.310;2023-05-19T06:33:50;11.25;;;5.97;;
54428;SDS011;40337;52.978;6.310;2023-05-19T06:36:17;9.88;;;4.82;;
54428;SDS011;40337;52.978;6.310;2023-05-19T06:38:43;10.02;;;4.90;;
54428;SDS011;40337;52.978;6.310;2023-05-19T06:41:08;10.35;;;4.60;;
54428;SDS011;40337;52.978;6.310;2023-05-19T06:43:34;8.40;;;4.38;;
54428;SDS011;40337;52.978;6.310;2023-05-19T06:45:59;8.63;;;4.10;;
54428;SDS011;40337;52.978;6.310;2023-05-19T06:48:25;10.75;;;4.60;;
54428;SDS011;40337;52.978;6.310;2023-05-19T06:50:51;7.47;;;4.03;;
54428;SDS011;40337;52.978;6.310;2023-05-19T06:53:17;8.73;;;4.25;;
54428;SDS011;40337;52.978;6.310;2023-05-19T06:55:43;6.88;;;3.70;;
54428;SDS011;40337;52.978;6.310;2023-05-19T06:58:09;9.85;;;4.00;;
54428;SDS011;40337;52.978;6.310;2023-05-19T07:00:34;10.40;;;3.85;;
54428;SDS011;40337;52.978;6.310;2023-05-19T07:03:01;7.80;;;3.80;;
54428;SDS011;40337;52.978;6.310;2023-05-19T07:05:27;9.85;;;4.00;;
54428;SDS011;40337;52.978;6.310;2023-05-19T07:07:52;11.07;;;3.72;;
54428;SDS011;40337;52.978;6.310;2023-05-19T07:10:18;7.90;;;3.40;;
54428;SDS011;40337;52.978;6.310;2023-05-19T07:12:45;8.52;;;3.60;;
54428;SDS011;40337;52.978;6.310;2023-05-19T07:15:10;7.22;;;3.08;;
54428;SDS011;40337;52.978;6.310;2023-05-19T07:17:36;6.60;;;3.38;;
54428;SDS011;40337;52.978;6.310;2023-05-19T07:20:02;5.78;;;2.85;;
54428;SDS011;40337;52.978;6.310;2023-05-19T07:22:30;6.65;;;3.10;;
54428;SDS011;40337;52.978;6.310;2023-05-19T07:24:59;9.15;;;3.05;;
54428;SDS011;40337;52.978;6.310;2023-05-19T07:27:25;7.20;;;2.90;;
54428;SDS011;40337;52.978;6.310;2023-05-19T07:29:50;7.68;;;3.05;;
54428;SDS011;40337;52.978;6.310;2023-05-19T07:32:16;8.25;;;2.80;;
54428;SDS011;40337;52.978;6.310;2023-05-19T07:34:41;7.43;;;2.97;;
54428;SDS011;40337;52.978;6.310;2023-05-19T07:37:07;5.75;;;2.53;;
54428;SDS011;40337;52.978;6.310;2023-05-19T07:39:33;7.90;;;2.63;;
54428;SDS011;40337;52.978;6.310;2023-05-19T07:42:00;7.60;;;2.75;;
54428;SDS011;40337;52.978;6.310;2023-05-19T07:44:26;8.90;;;2.67;;
54428;SDS011;40337;52.978;6.310;2023-05-19T07:46:53;6.45;;;2.60;;
54428;SDS011;40337;52.978;6.310;2023-05-19T07:49:18;7.30;;;2.80;;
54428;SDS011;40337;52.978;6.310;2023-05-19T07:51:44;9.27;;;3.08;;
54428;SDS011;40337;52.978;6.310;2023-05-19T07:54:10;7.43;;;2.92;;
54428;SDS011;40337;52.978;6.310;2023-05-19T07:56:36;7.85;;;3.10;;
54428;SDS011;40337;52.978;6.310;2023-05-19T07:59:02;7.28;;;3.20;;
54428;SDS011;40337;52.978;6.310;2023-05-19T08:01:28;7.30;;;2.60;;
54428;SDS011;40337;52.978;6.310;2023-05-19T08:03:54;6.47;;;2.75;;
54428;SDS011;40337;52.978;6.310;2023-05-19T08:06:20;7.72;;;3.13;;
54428;SDS011;40337;52.978;6.310;2023-05-19T08:08:46;7.35;;;2.83;;
54428;SDS011;40337;52.978;6.310;2023-05-19T08:11:12;8.65;;;2.92;;
54428;SDS011;40337;52.978;6.310;2023-05-19T08:13:37;7.45;;;2.92;;
54428;SDS011;40337;52.978;6.310;2023-05-19T08:16:03;6.82;;;2.78;;
54428;SDS011;40337;52.978;6.310;2023-05-19T08:18:29;6.78;;;2.78;;
54428;SDS011;40337;52.978;6.310;2023-05-19T08:20:55;7.15;;;2.90;;
54428;SDS011;40337;52.978;6.310;2023-05-19T08:23:20;6.25;;;2.60;;
54428;SDS011;40337;52.978;6.310;2023-05-19T08:25:46;7.90;;;2.83;;
54428;SDS011;40337;52.978;6.310;2023-05-19T08:28:12;7.10;;;2.72;;
54428;SDS011;40337;52.978;6.310;2023-05-19T08:30:37;6.60;;;2.83;;
54428;SDS011;40337;52.978;6.310;2023-05-19T08:33:03;6.93;;;2.60;;
54428;SDS011;40337;52.978;6.310;2023-05-19T08:35:29;7.57;;;3.10;;
54428;SDS011;40337;52.978;6.310;2023-05-19T08:37:54;8.15;;;3.00;;
54428;SDS011;40337;52.978;6.310;2023-05-19T08:40:21;6.90;;;2.95;;
54428;SDS011;40337;52.978;6.310;2023-05-19T08:42:47;7.63;;;2.90;;
54428;SDS011;40337;52.978;6.310;2023-05-19T08:45:13;9.13;;;2.83;;
54428;SDS011;40337;52.978;6.310;2023-05-19T08:47:40;7.20;;;2.90;;
54428;SDS011;40337;52.978;6.310;2023-05-19T08:50:06;7.00;;;2.63;;
54428;SDS011;40337;52.978;6.310;2023-05-19T08:52:46;8.70;;;2.60;;
54428;SDS011;40337;52.978;6.310;2023-05-19T08:55:28;7.15;;;2.60;;
54428;SDS011;40337;52.978;6.310;2023-05-19T08:58:02;5.50;;;2.45;;
54428;SDS011;40337;52.978;6.310;2023-05-19T09:00:28;5.55;;;2.40;;
54428;SDS011;40337;52.978;6.310;2023-05-19T09:02:54;7.75;;;2.58;;
54428;SDS011;40337;52.978;6.310;2023-05-19T09:05:20;5.88;;;2.75;;
54428;SDS011;40337;52.978;6.310;2023-05-19T09:07:47;6.18;;;2.53;;
54428;SDS011;40337;52.978;6.310;2023-05-19T09:10:13;9.27;;;2.85;;
54428;SDS011;40337;52.978;6.310;2023-05-19T09:12:43;5.90;;;2.40;;
54428;SDS011;40337;52.978;6.310;2023-05-19T09:15:11;6.40;;;2.35;;
54428;SDS011;40337;52.978;6.310;2023-05-19T09:17:38;6.30;;;2.72;;
54428;SDS011;40337;52.978;6.310;2023-05-19T09:20:04;6.80;;;2.75;;
54428;SDS011;40337;52.978;6.310;2023-05-19T09:22:41;6.32;;;2.70;;
54428;SDS011;40337;52.978;6.310;2023-05-19T09:25:45;5.63;;;2.33;;
54428;SDS011;40337;52.978;6.310;2023-05-19T09:28:36;7.32;;;2.35;;
54428;SDS011;40337;52.978;6.310;2023-05-19T09:31:02;6.30;;;2.45;;
54428;SDS011;40337;52.978;6.310;2023-05-19T09:33:29;5.90;;;2.33;;
54428;SDS011;40337;52.978;6.310;2023-05-19T09:35:57;5.35;;;2.55;;
54428;SDS011;40337;52.978;6.310;2023-05-19T09:38:26;5.15;;;2.30;;
54428;SDS011;40337;52.978;6.310;2023-05-19T09:40:52;6.65;;;2.38;;
54428;SDS011;40337;52.978;6.310;2023-05-19T09:43:26;5.70;;;2.10;;
54428;SDS011;40337;52.978;6.310;2023-05-19T09:45:59;5.30;;;2.15;;
54428;SDS011;40337;52.978;6.310;2023-05-19T09:48:28;4.85;;;2.10;;
54428;SDS011;40337;52.978;6.310;2023-05-19T09:50:54;5.93;;;2.13;;
54428;SDS011;40337;52.978;6.310;2023-05-19T09:53:23;5.75;;;2.38;;
54428;SDS011;40337;52.978;6.310;2023-05-19T09:55:50;4.63;;;2.25;;
54428;SDS011;40337;52.978;6.310;2023-05-19T09:58:21;6.05;;;2.33;;
54428;SDS011;40337;52.978;6.310;2023-05-19T10:00:48;4.45;;;2.50;;
54428;SDS011;40337;52.978;6.310;2023-05-19T10:03:14;5.90;;;2.45;;
54428;SDS011;40337;52.978;6.310;2023-05-19T10:05:41;6.03;;;2.70;;
54428;SDS011;40337;52.978;6.310;2023-05-19T10:08:07;5.40;;;2.50;;
54428;SDS011;40337;52.978;6.310;2023-05-19T10:10:36;6.28;;;2.28;;
54428;SDS011;40337;52.978;6.310;2023-05-19T10:13:02;6.32;;;2.25;;
54428;SDS011;40337;52.978;6.310;2023-05-19T10:15:28;5.20;;;2.50;;
54428;SDS011;40337;52.978;6.310;2023-05-19T10:17:54;6.32;;;2.40;;
54428;SDS011;40337;52.978;6.310;2023-05-19T10:20:20;6.88;;;2.38;;
54428;SDS011;40337;52.978;6.310;2023-05-19T10:22:46;5.38;;;2.03;;
54428;SDS011;40337;52.978;6.310;2023-05-19T10:25:12;4.57;;;1.88;;
54428;SDS011;40337;52.978;6.310;2023-05-19T10:27:45;9.85;;;2.22;;
54428;SDS011;40337;52.978;6.310;2023-05-19T10:30:19;4.05;;;2.10;;
54428;SDS011;40337;52.978;6.310;2023-05-19T10:43:24;6.25;;;1.92;;
54428;SDS011;40337;52.978;6.310;2023-05-19T10:46:01;5.95;;;2.22;;
54428;SDS011;40337;52.978;6.310;2023-05-19T10:48:32;5.57;;;2.00;;
54428;SDS011;40337;52.978;6.310;2023-05-19T10:50:58;7.40;;;2.20;;
54428;SDS011;40337;52.978;6.310;2023-05-19T10:53:29;5.28;;;2.00;;
54428;SDS011;40337;52.978;6.310;2023-05-19T10:55:55;6.82;;;2.28;;
54428;SDS011;40337;52.978;6.310;2023-05-19T10:58:35;16.10;;;3.05;;
54428;SDS011;40337;52.978;6.310;2023-05-19T11:01:13;8.23;;;2.30;;
54428;SDS011;40337;52.978;6.310;2023-05-19T11:03:46;4.82;;;1.90;;
54428;SDS011;40337;52.978;6.310;2023-05-19T11:06:16;6.38;;;2.05;;
54428;SDS011;40337;52.978;6.310;2023-05-19T11:09:31;6.30;;;2.40;;
54428;SDS011;40337;52.978;6.310;2023-05-19T11:11:46;4.20;;;1.90;;
54428;SDS011;40337;52.978;6.310;2023-05-19T11:14:15;5.18;;;2.28;;
54428;SDS011;40337;52.978;6.310;2023-05-19T11:16:45;5.97;;;1.90;;
54428;SDS011;40337;52.978;6.310;2023-05-19T11:21:49;5.05;;;2.10;;
54428;SDS011;40337;52.978;6.310;2023-05-19T11:24:32;6.57;;;2.40;;
54428;SDS011;40337;52.978;6.310;2023-05-19T11:27:28;6.45;;;1.92;;
54428;SDS011;40337;52.978;6.310;2023-05-19T11:32:38;4.95;;;2.10;;
54428;SDS011;40337;52.978;6.310;2023-05-19T11:35:07;6.65;;;2.30;;
54428;SDS011;40337;52.978;6.310;2023-05-19T11:37:34;5.00;;;2.20;;
54428;SDS011;40337;52.978;6.310;2023-05-19T11:40:00;4.82;;;2.00;;
54428;SDS011;40337;52.978;6.310;2023-05-19T11:42:26;7.60;;;2.20;;
54428;SDS011;40337;52.978;6.310;2023-05-19T11:44:54;5.03;;;1.90;;
54428;SDS011;40337;52.978;6.310;2023-05-19T11:47:20;5.13;;;2.05;;
54428;SDS011;40337;52.978;6.310;2023-05-19T11:49:49;6.80;;;2.38;;
54428;SDS011;40337;52.978;6.310;2023-05-19T11:52:20;4.95;;;1.88;;
54428;SDS011;40337;52.978;6.310;2023-05-19T11:54:46;5.93;;;2.40;;
54428;SDS011;40337;52.978;6.310;2023-05-19T11:57:12;7.07;;;2.47;;
54428;SDS011;40337;52.978;6.310;2023-05-19T11:59:38;6.50;;;2.10;;
54428;SDS011;40337;52.978;6.310;2023-05-19T12:02:16;5.43;;;2.20;;
54428;SDS011;40337;52.978;6.310;2023-05-19T12:04:42;5.40;;;2.13;;
54428;SDS011;40337;52.978;6.310;2023-05-19T12:07:09;4.45;;;2.15;;
54428;SDS011;40337;52.978;6.310;2023-05-19T12:09:36;5.90;;;2.35;;
54428;SDS011;40337;52.978;6.310;2023-05-19T12:12:01;5.97;;;2.53;;
54428;SDS011;40337;52.978;6.310;2023-05-19T12:14:28;6.15;;;2.22;;
54428;SDS011;40337;52.978;6.310;2023-05-19T12:16:55;5.18;;;2.17;;
54428;SDS011;40337;52.978;6.310;2023-05-19T12:19:24;5.40;;;2.08;;
54428;SDS011;40337;52.978;6.310;2023-05-19T12:21:50;8.35;;;2.22;;
54428;SDS011;40337;52.978;6.310;2023-05-19T12:24:18;6.50;;;2.10;;
54428;SDS011;40337;52.978;6.310;2023-05-19T12:26:44;6.88;;;2.55;;
54428;SDS011;40337;52.978;6.310;2023-05-19T12:29:11;5.60;;;2.40;;
54428;SDS011;40337;52.978;6.310;2023-05-19T12:31:37;9.15;;;2.80;;
54428;SDS011;40337;52.978;6.310;2023-05-19T12:34:03;6.47;;;2.60;;
54428;SDS011;40337;52.978;6.310;2023-05-19T12:36:30;5.68;;;2.42;;
54428;SDS011;40337;52.978;6.310;2023-05-19T12:38:55;7.15;;;2.60;;
54428;SDS011;40337;52.978;6.310;2023-05-19T12:41:22;8.43;;;2.40;;
54428;SDS011;40337;52.978;6.310;2023-05-19T12:43:49;7.25;;;2.72;;
54428;SDS011;40337;52.978;6.310;2023-05-19T12:46:17;5.68;;;2.25;;
54428;SDS011;40337;52.978;6.310;2023-05-19T12:48:43;4.00;;;2.10;;
54428;SDS011;40337;52.978;6.310;2023-05-19T12:51:09;6.65;;;2.55;;
54428;SDS011;40337;52.978;6.310;2023-05-19T12:53:40;4.20;;;2.30;;
54428;SDS011;40337;52.978;6.310;2023-05-19T12:56:10;6.57;;;2.50;;
54428;SDS011;40337;52.978;6.310;2023-05-19T12:58:43;6.28;;;2.80;;
54428;SDS011;40337;52.978;6.310;2023-05-19T13:01:16;4.60;;;2.22;;
54428;SDS011;40337;52.978;6.310;2023-05-19T13:03:42;9.18;;;2.80;;
54428;SDS011;40337;52.978;6.310;2023-05-19T13:06:08;6.90;;;2.50;;
54428;SDS011;40337;52.978;6.310;2023-05-19T13:08:35;6.07;;;2.42;;
54428;SDS011;40337;52.978;6.310;2023-05-19T13:11:02;4.88;;;2.40;;
54428;SDS011;40337;52.978;6.310;2023-05-19T13:13:28;6.05;;;2.65;;
54428;SDS011;40337;52.978;6.310;2023-05-19T13:15:54;8.77;;;2.88;;
54428;SDS011;40337;52.978;6.310;2023-05-19T13:18:20;6.78;;;2.83;;
54428;SDS011;40337;52.978;6.310;2023-05-19T13:20:46;7.63;;;2.70;;
54428;SDS011;40337;52.978;6.310;2023-05-19T13:23:14;6.55;;;2.50;;
54428;SDS011;40337;52.978;6.310;2023-05-19T13:25:40;8.90;;;3.10;;
54428;SDS011;40337;52.978;6.310;2023-05-19T13:28:06;6.57;;;2.63;;
54428;SDS011;40337;52.978;6.310;2023-05-19T13:30:32;6.45;;;2.75;;
54428;SDS011;40337;52.978;6.310;2023-05-19T13:32:59;8.18;;;3.00;;
54428;SDS011;40337;52.978;6.310;2023-05-19T13:35:24;7.45;;;2.88;;
54428;SDS011;40337;52.978;6.310;2023-05-19T13:37:50;5.82;;;2.83;;
54428;SDS011;40337;52.978;6.310;2023-05-19T13:40:16;9.85;;;2.85;;
54428;SDS011;40337;52.978;6.310;2023-05-19T13:42:41;7.40;;;2.63;;
54428;SDS011;40337;52.978;6.310;2023-05-19T13:45:07;7.72;;;2.90;;
54428;SDS011;40337;52.978;6.310;2023-05-19T13:47:33;6.30;;;2.67;;
54428;SDS011;40337;52.978;6.310;2023-05-19T13:50:00;7.15;;;2.78;;
54428;SDS011;40337;52.978;6.310;2023-05-19T13:52:27;7.78;;;2.72;;
54428;SDS011;40337;52.978;6.310;2023-05-19T13:54:52;12.80;;;3.60;;
54428;SDS011;40337;52.978;6.310;2023-05-19T13:57:20;8.70;;;2.90;;
54428;SDS011;40337;52.978;6.310;2023-05-19T13:59:47;6.38;;;2.88;;
54428;SDS011;40337;52.978;6.310;2023-05-19T14:02:12;9.63;;;3.10;;
54428;SDS011;40337;52.978;6.310;2023-05-19T14:04:38;6.43;;;2.58;;
54428;SDS011;40337;52.978;6.310;2023-05-19T14:07:04;6.70;;;2.70;;
54428;SDS011;40337;52.978;6.310;2023-05-19T14:09:31;6.70;;;2.55;;
54428;SDS011;40337;52.978;6.310;2023-05-19T14:11:56;5.68;;;2.40;;
54428;SDS011;40337;52.978;6.310;2023-05-19T14:14:22;8.00;;;2.95;;
54428;SDS011;40337;52.978;6.310;2023-05-19T14:16:48;6.75;;;2.75;;
54428;SDS011;40337;52.978;6.310;2023-05-19T14:19:14;5.45;;;2.88;;
54428;SDS011;40337;52.978;6.310;2023-05-19T14:21:39;7.15;;;2.90;;
54428;SDS011;40337;52.978;6.310;2023-05-19T14:24:05;8.63;;;2.45;;
54428;SDS011;40337;52.978;6.310;2023-05-19T14:26:31;5.72;;;2.63;;
54428;SDS011;40337;52.978;6.310;2023-05-19T14:28:56;7.05;;;2.65;;
54428;SDS011;40337;52.978;6.310;2023-05-19T14:31:22;7.35;;;2.88;;
54428;SDS011;40337;52.978;6.310;2023-05-19T14:33:48;7.20;;;3.15;;
54428;SDS011;40337;52.978;6.310;2023-05-19T14:36:13;6.55;;;2.40;;
54428;SDS011;40337;52.978;6.310;2023-05-19T14:38:39;8.38;;;2.65;;
54428;SDS011;40337;52.978;6.310;2023-05-19T14:41:05;8.57;;;2.70;;
54428;SDS011;40337;52.978;6.310;2023-05-19T14:43:31;6.90;;;2.47;;
54428;SDS011;40337;52.978;6.310;2023-05-19T14:45:57;6.57;;;2.50;;
54428;SDS011;40337;52.978;6.310;2023-05-19T14:48:22;6.22;;;2.67;;
54428;SDS011;40337;52.978;6.310;2023-05-19T14:50:48;7.78;;;2.53;;
54428;SDS011;40337;52.978;6.310;2023-05-19T14:53:14;6.07;;;2.50;;
54428;SDS011;40337;52.978;6.310;2023-05-19T14:55:40;6.20;;;2.50;;
54428;SDS011;40337;52.978;6.310;2023-05-19T14:58:06;5.65;;;2.60;;
54428;SDS011;40337;52.978;6.310;2023-05-19T15:00:31;6.50;;;2.58;;
54428;SDS011;40337;52.978;6.310;2023-05-19T15:02:57;6.78;;;2.55;;
54428;SDS011;40337;52.978;6.310;2023-05-19T15:05:22;7.45;;;2.60;;
54428;SDS011;40337;52.978;6.310;2023-05-19T15:07:48;8.50;;;2.53;;
54428;SDS011;40337;52.978;6.310;2023-05-19T15:10:14;8.23;;;2.53;;
54428;SDS011;40337;52.978;6.310;2023-05-19T15:12:41;7.80;;;2.58;;
54428;SDS011;40337;52.978;6.310;2023-05-19T15:15:06;6.43;;;2.47;;